createdAt,value
2018-06-05T00:00:07.892Z,972.60
2018-06-05T00:01:08.162Z,972.57
2018-06-05T00:02:08.394Z,972.59
2018-06-05T00:03:08.637Z,972.58
2018-06-05T00:04:08.873Z,972.57
2018-06-05T00:05:09.132Z,972.57
2018-06-05T00:06:09.383Z,972.57
2018-06-05T00:07:09.610Z,972.57
2018-06-05T00:08:09.845Z,972.57
2018-06-05T00:09:10.105Z,972.59
2018-06-05T00:10:10.316Z,972.60
2018-06-05T00:11:10.551Z,972.59
2018-06-05T00:12:10.813Z,972.62
2018-06-05T00:13:11.041Z,972.60
2018-06-05T00:14:11.314Z,972.58
2018-06-05T00:15:11.543Z,972.57
2018-06-05T00:16:11.764Z,972.57
2018-06-05T00:17:12.032Z,972.52
2018-06-05T00:18:12.224Z,972.50
2018-06-05T00:19:12.475Z,972.50
2018-06-05T00:20:12.696Z,972.51
2018-06-05T00:21:12.926Z,972.46
2018-06-05T00:22:13.169Z,972.46
2018-06-05T00:23:13.419Z,972.45
2018-06-05T00:24:13.642Z,972.44
2018-06-05T00:25:13.887Z,972.45
2018-06-05T00:26:14.119Z,972.44
2018-06-05T00:27:14.357Z,972.44
2018-06-05T00:28:14.590Z,972.45
2018-06-05T00:29:14.871Z,972.46
2018-06-05T00:30:15.074Z,972.47
2018-06-05T00:31:15.322Z,972.47
2018-06-05T00:32:15.588Z,972.50
2018-06-05T00:33:15.843Z,972.49
2018-06-05T00:34:16.067Z,972.50
2018-06-05T00:35:16.307Z,972.50
2018-06-05T00:36:16.528Z,972.53
2018-06-05T00:37:16.764Z,972.54
2018-06-05T00:38:17.004Z,972.53
2018-06-05T00:39:17.274Z,972.57
2018-06-05T00:40:17.464Z,972.54
2018-06-05T00:41:17.710Z,972.56
2018-06-05T00:42:17.942Z,972.57
2018-06-05T00:43:18.193Z,972.56
2018-06-05T00:44:18.426Z,972.61
2018-06-05T00:45:18.662Z,972.58
2018-06-05T00:46:18.896Z,972.56
2018-06-05T00:47:19.134Z,972.59
2018-06-05T00:48:19.385Z,972.56
2018-06-05T00:49:19.636Z,972.55
2018-06-05T00:50:19.861Z,972.54
2018-06-05T00:51:20.120Z,972.53
2018-06-05T00:52:20.369Z,972.57
2018-06-05T00:53:20.592Z,972.56
2018-06-05T00:54:20.837Z,972.57
2018-06-05T00:55:21.108Z,972.54
2018-06-05T00:56:21.315Z,972.54
2018-06-05T00:57:21.567Z,972.54
2018-06-05T00:58:21.814Z,972.52
2018-06-05T00:59:22.036Z,972.53
2018-06-05T01:00:22.277Z,972.53
2018-06-05T01:01:22.511Z,972.54
2018-06-05T01:02:22.745Z,972.56
2018-06-05T01:03:22.975Z,972.54
2018-06-05T01:04:23.236Z,972.54
2018-06-05T01:05:23.508Z,972.53
2018-06-05T01:06:23.718Z,972.54
2018-06-05T01:07:23.975Z,972.54
2018-06-05T01:08:24.191Z,972.52
2018-06-05T01:09:24.427Z,972.52
2018-06-05T01:10:24.673Z,972.55
2018-06-05T01:11:24.888Z,972.56
2018-06-05T01:12:25.142Z,972.55
2018-06-05T01:13:25.368Z,972.53
2018-06-05T01:14:25.628Z,972.54
2018-06-05T01:15:25.887Z,972.54
2018-06-05T01:16:26.089Z,972.56
2018-06-05T01:17:26.336Z,972.52
2018-06-05T01:18:26.541Z,972.54
2018-06-05T01:19:26.792Z,972.52
2018-06-05T01:20:27.025Z,972.54
2018-06-05T01:21:27.275Z,972.51
2018-06-05T01:22:27.511Z,972.50
2018-06-05T01:23:27.767Z,972.49
2018-06-05T01:24:27.987Z,972.51
2018-06-05T01:25:28.222Z,972.50
2018-06-05T01:26:28.474Z,972.50
2018-06-05T01:27:28.716Z,972.50
2018-06-05T01:28:28.952Z,972.47
2018-06-05T01:29:29.205Z,972.43
2018-06-05T01:30:29.455Z,972.47
2018-06-05T01:31:29.685Z,972.46
2018-06-05T01:32:29.917Z,972.45
2018-06-05T01:33:30.164Z,972.43
2018-06-05T01:34:30.426Z,972.42
2018-06-05T01:35:30.644Z,972.39
2018-06-05T01:36:30.867Z,972.39
2018-06-05T01:37:31.104Z,972.38
2018-06-05T01:38:31.353Z,972.37
2018-06-05T01:39:31.592Z,972.38
2018-06-05T01:40:31.819Z,972.33
2018-06-05T01:41:32.052Z,972.36
2018-06-05T01:42:32.318Z,972.38
2018-06-05T01:43:32.575Z,972.36
2018-06-05T01:44:32.827Z,972.36
2018-06-05T01:45:33.053Z,972.35
2018-06-05T01:46:33.294Z,972.37
2018-06-05T01:47:33.543Z,972.36
2018-06-05T01:48:33.787Z,972.35
2018-06-05T01:49:34.012Z,972.32
2018-06-05T01:50:34.253Z,972.34
2018-06-05T01:51:34.494Z,972.30
2018-06-05T01:52:34.751Z,972.31
2018-06-05T01:53:34.966Z,972.29
2018-06-05T01:54:35.231Z,972.29
2018-06-05T01:55:35.467Z,972.25
2018-06-05T01:56:35.675Z,972.25
2018-06-05T01:57:35.912Z,972.26
2018-06-05T01:58:36.155Z,972.24
2018-06-05T01:59:36.408Z,972.27
2018-06-05T02:00:36.643Z,972.24
2018-06-05T02:01:36.877Z,972.24
2018-06-05T02:02:37.114Z,972.20
2018-06-05T02:03:37.367Z,972.22
2018-06-05T02:04:37.582Z,972.22
2018-06-05T02:05:37.820Z,972.19
2018-06-05T02:06:38.039Z,972.21
2018-06-05T02:07:38.292Z,972.21
2018-06-05T02:08:38.537Z,972.21
2018-06-05T02:09:38.760Z,972.22
2018-06-05T02:10:39.015Z,972.19
2018-06-05T02:11:39.251Z,972.22
2018-06-05T02:12:39.468Z,972.18
2018-06-05T02:13:39.724Z,972.20
2018-06-05T02:14:39.942Z,972.23
2018-06-05T02:15:40.206Z,972.21
2018-06-05T02:16:40.436Z,972.18
2018-06-05T02:17:40.658Z,972.22
2018-06-05T02:18:40.905Z,972.25
2018-06-05T02:19:41.144Z,972.21
2018-06-05T02:20:41.383Z,972.25
2018-06-05T02:21:41.627Z,972.27
2018-06-05T02:22:41.859Z,972.26
2018-06-05T02:23:42.091Z,972.27
2018-06-05T02:24:42.328Z,972.25
2018-06-05T02:25:42.568Z,972.29
2018-06-05T02:26:42.795Z,972.25
2018-06-05T02:27:43.064Z,972.29
2018-06-05T02:28:43.296Z,972.31
2018-06-05T02:29:43.545Z,972.33
2018-06-05T02:30:43.778Z,972.30
2018-06-05T02:31:44.013Z,972.32
2018-06-05T02:32:44.249Z,972.33
2018-06-05T02:33:44.464Z,972.37
2018-06-05T02:34:44.710Z,972.32
2018-06-05T02:35:44.945Z,972.36
2018-06-05T02:36:45.199Z,972.37
2018-06-05T02:37:45.400Z,972.35
2018-06-05T02:38:45.664Z,972.38
2018-06-05T02:39:45.900Z,972.39
2018-06-05T02:40:46.138Z,972.34
2018-06-05T02:41:46.361Z,972.33
2018-06-05T02:42:46.607Z,972.34
2018-06-05T02:43:46.837Z,972.35
2018-06-05T02:44:47.067Z,972.34
2018-06-05T02:45:47.346Z,972.36
2018-06-05T02:46:47.593Z,972.40
2018-06-05T02:47:47.840Z,972.41
2018-06-05T02:48:48.074Z,972.38
2018-06-05T02:49:48.288Z,972.42
2018-06-05T02:50:48.539Z,972.41
2018-06-05T02:51:48.801Z,972.42
2018-06-05T02:52:49.028Z,972.42
2018-06-05T02:53:49.259Z,972.42
2018-06-05T02:54:49.511Z,972.41
2018-06-05T02:55:49.747Z,972.45
2018-06-05T02:56:49.978Z,972.44
2018-06-05T02:57:50.236Z,972.45
2018-06-05T02:58:50.465Z,972.46
2018-06-05T02:59:50.718Z,972.48
2018-06-05T03:00:50.966Z,972.51
2018-06-05T03:01:51.209Z,972.51
2018-06-05T03:02:51.445Z,972.52
2018-06-05T03:03:51.685Z,972.52
2018-06-05T03:04:51.905Z,972.52
2018-06-05T03:05:52.126Z,972.50
2018-06-05T03:06:52.397Z,972.53
2018-06-05T03:07:52.647Z,972.52
2018-06-05T03:08:52.886Z,972.53
2018-06-05T03:09:53.120Z,972.56
2018-06-05T03:10:53.322Z,972.54
2018-06-05T03:11:53.557Z,972.57
2018-06-05T03:12:53.834Z,972.56
2018-06-05T03:13:54.040Z,972.57
2018-06-05T03:14:54.278Z,972.57
2018-06-05T03:15:54.508Z,972.61
2018-06-05T03:16:54.774Z,972.61
2018-06-05T03:17:54.995Z,972.70
2018-06-05T03:18:55.228Z,972.65
2018-06-05T03:19:55.506Z,972.66
2018-06-05T03:20:55.725Z,972.70
2018-06-05T03:21:55.952Z,972.74
2018-06-05T03:22:56.253Z,972.72
2018-06-05T03:23:56.460Z,972.74
2018-06-05T03:24:56.700Z,972.81
2018-06-05T03:25:56.955Z,972.77
2018-06-05T03:26:57.207Z,972.80
2018-06-05T03:27:57.413Z,972.82
2018-06-05T03:28:57.661Z,972.81
2018-06-05T03:29:57.887Z,972.80
2018-06-05T03:30:58.166Z,972.80
2018-06-05T03:31:58.372Z,972.80
2018-06-05T03:32:58.624Z,972.83
2018-06-05T03:34:08.560Z,972.81
2018-06-05T03:34:59.113Z,972.83
2018-06-05T03:35:59.366Z,972.84
2018-06-05T03:36:59.605Z,972.87
2018-06-05T03:37:59.822Z,972.82
2018-06-05T03:39:00.097Z,972.84
2018-06-05T03:40:00.302Z,972.85
2018-06-05T03:41:00.548Z,972.85
2018-06-05T03:42:00.786Z,972.85
2018-06-05T03:43:01.040Z,972.86
2018-06-05T03:44:01.271Z,972.85
2018-06-05T03:45:01.516Z,972.88
2018-06-05T03:46:01.760Z,972.90
2018-06-05T03:47:02.003Z,972.86
2018-06-05T03:48:02.248Z,972.85
2018-06-05T03:49:02.494Z,972.85
2018-06-05T03:50:02.734Z,972.85
2018-06-05T03:51:02.979Z,972.86
2018-06-05T03:52:03.220Z,972.85
2018-06-05T03:53:03.464Z,972.89
2018-06-05T03:54:03.707Z,972.89
2018-06-05T03:55:03.950Z,972.91
2018-06-05T03:56:04.193Z,972.90
2018-06-05T03:57:04.457Z,972.89
2018-06-05T03:58:04.681Z,972.89
2018-06-05T03:59:04.922Z,972.93
2018-06-05T04:00:05.167Z,972.88
2018-06-05T04:01:05.413Z,972.91
2018-06-05T04:02:05.654Z,972.87
2018-06-05T04:03:05.898Z,972.83
2018-06-05T04:04:06.134Z,972.82
2018-06-05T04:05:06.381Z,972.85
2018-06-05T04:06:06.626Z,972.90
2018-06-05T04:07:06.870Z,972.88
2018-06-05T04:08:07.113Z,972.91
2018-06-05T04:09:07.360Z,972.95
2018-06-05T04:10:07.602Z,972.96
2018-06-05T04:11:07.843Z,972.97
2018-06-05T04:12:08.089Z,972.98
2018-06-05T04:13:08.334Z,972.95
2018-06-05T04:14:08.579Z,972.96
2018-06-05T04:15:08.825Z,972.95
2018-06-05T04:16:09.069Z,972.97
2018-06-05T04:17:09.313Z,972.93
2018-06-05T04:18:09.559Z,972.95
2018-06-05T04:19:09.800Z,972.94
2018-06-05T04:20:10.045Z,972.99
2018-06-05T04:21:10.293Z,973.01
2018-06-05T04:22:10.525Z,973.01
2018-06-05T04:23:10.767Z,973.08
2018-06-05T04:24:11.011Z,973.06
2018-06-05T04:25:11.265Z,973.11
2018-06-05T04:26:11.494Z,973.06
2018-06-05T04:27:11.792Z,973.09
2018-06-05T04:28:11.984Z,973.09
2018-06-05T04:29:12.225Z,973.12
2018-06-05T04:30:12.471Z,973.10
2018-06-05T04:31:12.715Z,973.08
2018-06-05T04:32:12.961Z,973.08
2018-06-05T04:33:13.204Z,973.11
2018-06-05T04:34:13.448Z,973.14
2018-06-05T04:35:13.692Z,973.14
2018-06-05T04:36:13.951Z,973.15
2018-06-05T04:37:14.181Z,973.19
2018-06-05T04:38:14.425Z,973.20
2018-06-05T04:39:14.669Z,973.21
2018-06-05T04:40:14.913Z,973.26
2018-06-05T04:41:15.158Z,973.27
2018-06-05T04:42:15.405Z,973.28
2018-06-05T04:43:15.648Z,973.30
2018-06-05T04:44:15.905Z,973.29
2018-06-05T04:45:16.134Z,973.34
2018-06-05T04:46:16.373Z,973.34
2018-06-05T04:47:16.619Z,973.27
2018-06-05T04:48:16.864Z,973.33
2018-06-05T04:49:17.110Z,973.33
2018-06-05T04:50:17.355Z,973.30
2018-06-05T04:51:17.600Z,973.34
2018-06-05T04:52:17.846Z,973.39
2018-06-05T04:53:18.092Z,973.42
2018-06-05T04:54:18.332Z,973.42
2018-06-05T04:55:18.580Z,973.42
2018-06-05T04:56:18.826Z,973.42
2018-06-05T04:57:19.071Z,973.40
2018-06-05T04:58:19.309Z,973.40
2018-06-05T04:59:19.552Z,973.42
2018-06-05T05:00:19.803Z,973.42
2018-06-05T05:01:20.041Z,973.41
2018-06-05T05:02:20.289Z,973.40
2018-06-05T05:03:20.572Z,973.44
2018-06-05T05:04:20.764Z,973.45
2018-06-05T05:05:21.019Z,973.49
2018-06-05T05:06:21.265Z,973.48
2018-06-05T05:07:21.519Z,973.50
2018-06-05T05:08:21.755Z,973.50
2018-06-05T05:09:21.989Z,973.48
2018-06-05T05:10:22.227Z,973.51
2018-06-05T05:11:22.465Z,973.51
2018-06-05T05:12:22.698Z,973.52
2018-06-05T05:13:22.945Z,973.52
2018-06-05T05:14:23.179Z,973.53
2018-06-05T05:15:23.425Z,973.53
2018-06-05T05:16:23.704Z,973.54
2018-06-05T05:17:23.896Z,973.56
2018-06-05T05:18:24.136Z,973.56
2018-06-05T05:19:24.379Z,973.59
2018-06-05T05:20:24.628Z,973.55
2018-06-05T05:21:24.859Z,973.58
2018-06-05T05:22:25.116Z,973.59
2018-06-05T05:23:25.336Z,973.54
2018-06-05T05:24:25.601Z,973.59
2018-06-05T05:25:25.821Z,973.60
2018-06-05T05:26:26.068Z,973.58
2018-06-05T05:27:26.311Z,973.57
2018-06-05T05:28:26.563Z,973.59
2018-06-05T05:29:26.805Z,973.60
2018-06-05T05:30:27.036Z,973.60
2018-06-05T05:31:27.274Z,973.57
2018-06-05T05:32:27.519Z,973.56
2018-06-05T05:33:27.763Z,973.57
2018-06-05T05:34:28.008Z,973.58
2018-06-05T05:35:28.243Z,973.57
2018-06-05T05:36:28.463Z,973.56
2018-06-05T05:37:28.702Z,973.56
2018-06-05T05:38:28.969Z,973.60
2018-06-05T05:39:29.201Z,973.60
2018-06-05T05:40:29.441Z,973.55
2018-06-05T05:41:29.685Z,973.56
2018-06-05T05:42:29.940Z,973.57
2018-06-05T05:43:30.174Z,973.55
2018-06-05T05:44:30.397Z,973.58
2018-06-05T05:45:30.634Z,973.60
2018-06-05T05:46:30.881Z,973.55
2018-06-05T05:47:31.157Z,973.62
2018-06-05T05:48:31.364Z,973.65
2018-06-05T05:49:31.629Z,973.68
2018-06-05T05:50:31.853Z,973.65
2018-06-05T05:51:32.119Z,973.70
2018-06-05T05:52:32.323Z,973.68
2018-06-05T05:53:32.558Z,973.71
2018-06-05T05:54:32.810Z,973.73
2018-06-05T05:55:33.057Z,973.72
2018-06-05T05:56:33.310Z,973.70
2018-06-05T05:57:33.550Z,973.75
2018-06-05T05:58:33.802Z,973.77
2018-06-05T05:59:34.040Z,973.76
2018-06-05T06:00:34.266Z,973.72
2018-06-05T06:01:34.496Z,973.71
2018-06-05T06:02:34.727Z,973.72
2018-06-05T06:03:34.961Z,973.74
2018-06-05T06:04:35.234Z,973.72
2018-06-05T06:05:35.465Z,973.71
2018-06-05T06:06:35.710Z,973.69
2018-06-05T06:07:35.947Z,973.70
2018-06-05T06:08:36.198Z,973.73
2018-06-05T06:09:36.437Z,973.75
2018-06-05T06:10:36.672Z,973.77
2018-06-05T06:11:36.928Z,973.73
2018-06-05T06:12:37.168Z,973.74
2018-06-05T06:13:37.416Z,973.73
2018-06-05T06:14:37.635Z,973.75
2018-06-05T06:15:37.868Z,973.73
2018-06-05T06:16:38.114Z,973.73
2018-06-05T06:17:38.373Z,973.72
2018-06-05T06:18:38.625Z,973.73
2018-06-05T06:19:38.848Z,973.75
2018-06-05T06:20:39.091Z,973.73
2018-06-05T06:21:39.360Z,973.78
2018-06-05T06:22:39.599Z,973.77
2018-06-05T06:23:39.843Z,973.80
2018-06-05T06:24:40.093Z,973.79
2018-06-05T06:25:40.349Z,973.81
2018-06-05T06:26:40.593Z,973.79
2018-06-05T06:27:40.832Z,973.78
2018-06-05T06:28:41.101Z,973.77
2018-06-05T06:29:41.330Z,973.77
2018-06-05T06:30:41.556Z,973.77
2018-06-05T06:31:41.800Z,973.78
2018-06-05T06:32:42.039Z,973.78
2018-06-05T06:33:42.268Z,973.80
2018-06-05T06:34:42.520Z,973.80
2018-06-05T06:35:42.754Z,973.80
2018-06-05T06:36:42.988Z,973.85
2018-06-05T06:37:43.226Z,973.83
2018-06-05T06:38:43.489Z,973.83
2018-06-05T06:39:43.774Z,973.87
2018-06-05T06:40:43.973Z,973.86
2018-06-05T06:41:44.218Z,973.83
2018-06-05T06:42:44.460Z,973.85
2018-06-05T06:43:44.735Z,973.82
2018-06-05T06:44:44.961Z,973.85
2018-06-05T06:45:45.211Z,973.85
2018-06-05T06:46:45.437Z,973.87
2018-06-05T06:47:45.689Z,973.86
2018-06-05T06:48:45.950Z,973.84
2018-06-05T06:49:46.177Z,973.85
2018-06-05T06:50:46.412Z,973.85
2018-06-05T06:51:46.663Z,973.89
2018-06-05T06:52:46.894Z,973.90
2018-06-05T06:53:47.138Z,973.91
2018-06-05T06:54:47.388Z,973.90
2018-06-05T06:55:47.614Z,973.88
2018-06-05T06:56:47.859Z,973.91
2018-06-05T06:57:48.098Z,973.90
2018-06-05T06:58:48.336Z,973.91
2018-06-05T06:59:48.583Z,973.95
2018-06-05T07:00:48.834Z,973.95
2018-06-05T07:01:49.070Z,973.91
2018-06-05T07:02:49.346Z,973.89
2018-06-05T07:03:49.556Z,973.90
2018-06-05T07:04:49.790Z,973.89
2018-06-05T07:05:50.044Z,973.93
2018-06-05T07:06:50.289Z,973.90
2018-06-05T07:07:50.526Z,973.90
2018-06-05T07:08:50.771Z,973.91
2018-06-05T07:09:51.016Z,973.91
2018-06-05T07:10:51.245Z,973.95
2018-06-05T07:11:51.491Z,973.97
2018-06-05T07:12:51.733Z,973.92
2018-06-05T07:13:51.989Z,973.99
2018-06-05T07:14:52.224Z,973.98
2018-06-05T07:15:52.468Z,973.99
2018-06-05T07:16:52.699Z,973.97
2018-06-05T07:17:52.956Z,973.98
2018-06-05T07:18:53.182Z,974.01
2018-06-05T07:19:53.438Z,974.04
2018-06-05T07:20:53.654Z,974.02
2018-06-05T07:21:53.900Z,973.98
2018-06-05T07:22:54.140Z,974.00
2018-06-05T07:23:54.374Z,974.06
2018-06-05T07:24:54.598Z,974.02
2018-06-05T07:25:54.865Z,974.04
2018-06-05T07:26:55.083Z,974.02
2018-06-05T07:27:55.354Z,974.05
2018-06-05T07:28:55.588Z,974.09
2018-06-05T07:29:55.821Z,974.08
2018-06-05T07:30:56.061Z,974.08
2018-06-05T07:31:56.309Z,974.10
2018-06-05T07:32:56.553Z,974.07
2018-06-05T07:33:56.775Z,974.09
2018-06-05T07:34:57.045Z,974.10
2018-06-05T07:35:57.294Z,974.09
2018-06-05T07:36:57.525Z,974.09
2018-06-05T07:37:57.769Z,974.11
2018-06-05T07:38:58.011Z,974.10
2018-06-05T07:39:58.277Z,974.11
2018-06-05T07:40:58.498Z,974.15
2018-06-05T07:41:58.732Z,974.15
2018-06-05T07:42:59.008Z,974.17
2018-06-05T07:43:59.232Z,974.17
2018-06-05T07:44:59.488Z,974.15
2018-06-05T07:45:59.723Z,974.17
2018-06-05T07:46:59.979Z,974.15
2018-06-05T07:48:00.237Z,974.14
2018-06-05T07:49:00.456Z,974.12
2018-06-05T07:50:00.804Z,974.14
2018-06-05T07:51:00.948Z,974.11
2018-06-05T07:52:01.214Z,974.15
2018-06-05T07:53:01.458Z,974.13
2018-06-05T07:54:01.715Z,974.15
2018-06-05T07:55:01.948Z,974.15
2018-06-05T07:56:02.209Z,974.15
2018-06-05T07:57:02.427Z,974.16
2018-06-05T07:58:02.695Z,974.20
2018-06-05T07:59:02.937Z,974.19
2018-06-05T08:00:03.170Z,974.19
2018-06-05T08:01:03.412Z,974.18
2018-06-05T08:02:03.656Z,974.18
2018-06-05T08:03:03.911Z,974.20
2018-06-05T08:04:04.131Z,974.18
2018-06-05T08:05:04.378Z,974.17
2018-06-05T08:06:04.633Z,974.18
2018-06-05T08:07:04.865Z,974.21
2018-06-05T08:08:05.122Z,974.17
2018-06-05T08:09:05.368Z,974.19
2018-06-05T08:10:05.631Z,974.18
2018-06-05T08:11:05.871Z,974.19
2018-06-05T08:12:06.107Z,974.21
2018-06-05T08:13:06.346Z,974.21
2018-06-05T08:14:06.585Z,974.23
2018-06-05T08:15:06.820Z,974.24
2018-06-05T08:16:07.066Z,974.24
2018-06-05T08:17:07.313Z,974.25
2018-06-05T08:18:07.548Z,974.23
2018-06-05T08:19:07.804Z,974.25
2018-06-05T08:20:08.022Z,974.28
2018-06-05T08:21:08.260Z,974.25
2018-06-05T08:22:08.489Z,974.28
2018-06-05T08:23:08.743Z,974.26
2018-06-05T08:24:08.980Z,974.31
2018-06-05T08:25:09.226Z,974.24
2018-06-05T08:26:09.463Z,974.27
2018-06-05T08:27:09.731Z,974.27
2018-06-05T08:28:09.967Z,974.30
2018-06-05T08:29:10.204Z,974.27
2018-06-05T08:30:10.447Z,974.24
2018-06-05T08:31:10.688Z,974.31
2018-06-05T08:32:10.925Z,974.29
2018-06-05T08:33:11.167Z,974.32
2018-06-05T08:34:11.409Z,974.30
2018-06-05T08:35:11.661Z,974.31
2018-06-05T08:36:11.891Z,974.31
2018-06-05T08:37:12.143Z,974.32
2018-06-05T08:38:12.370Z,974.30
2018-06-05T08:39:12.624Z,974.32
2018-06-05T08:40:12.852Z,974.31
2018-06-05T08:41:13.098Z,974.32
2018-06-05T08:42:13.349Z,974.29
2018-06-05T08:43:13.588Z,974.35
2018-06-05T08:44:13.844Z,974.32
2018-06-05T08:45:14.092Z,974.31
2018-06-05T08:46:14.330Z,974.35
2018-06-05T08:47:14.570Z,974.36
2018-06-05T08:48:14.806Z,974.36
2018-06-05T08:49:15.045Z,974.37
2018-06-05T08:50:15.289Z,974.41
2018-06-05T08:51:15.521Z,974.40
2018-06-05T08:52:15.779Z,974.40
2018-06-05T08:53:16.017Z,974.37
2018-06-05T08:54:16.337Z,974.37
2018-06-05T08:55:16.492Z,974.38
2018-06-05T08:56:16.733Z,974.39
2018-06-05T08:57:16.979Z,974.42
2018-06-05T08:58:17.252Z,974.39
2018-06-05T08:59:17.475Z,974.41
2018-06-05T09:00:17.711Z,974.40
2018-06-05T09:01:17.986Z,974.42
2018-06-05T09:02:18.197Z,974.42
2018-06-05T09:03:18.442Z,974.38
2018-06-05T09:04:18.682Z,974.42
2018-06-05T09:05:18.953Z,974.42
2018-06-05T09:06:19.177Z,974.43
2018-06-05T09:07:19.428Z,974.45
2018-06-05T09:08:19.677Z,974.47
2018-06-05T09:09:19.936Z,974.45
2018-06-05T09:10:20.156Z,974.44
2018-06-05T09:11:20.422Z,974.44
2018-06-05T09:12:20.694Z,974.44
2018-06-05T09:13:20.941Z,974.49
2018-06-05T09:14:21.198Z,974.48
2018-06-05T09:15:21.431Z,974.48
2018-06-05T09:16:21.677Z,974.47
2018-06-05T09:17:21.925Z,974.47
2018-06-05T09:18:22.166Z,974.47
2018-06-05T09:19:22.411Z,974.46
2018-06-05T09:20:22.673Z,974.50
2018-06-05T09:21:22.910Z,974.49
2018-06-05T09:22:23.153Z,974.52
2018-06-05T09:23:23.428Z,974.48
2018-06-05T09:24:23.651Z,974.48
2018-06-05T09:25:23.908Z,974.52
2018-06-05T09:26:24.142Z,974.52
2018-06-05T09:27:24.397Z,974.54
2018-06-05T09:28:24.638Z,974.57
2018-06-05T09:29:24.885Z,974.50
2018-06-05T09:30:25.123Z,974.52
2018-06-05T09:31:25.374Z,974.51
2018-06-05T09:32:25.627Z,974.50
2018-06-05T09:33:25.856Z,974.49
2018-06-05T09:34:26.139Z,974.50
2018-06-05T09:35:26.350Z,974.52
2018-06-05T09:36:26.598Z,974.52
2018-06-05T09:37:26.844Z,974.55
2018-06-05T09:38:27.090Z,974.53
2018-06-05T09:39:27.331Z,974.54
2018-06-05T09:40:27.581Z,974.60
2018-06-05T09:41:27.848Z,974.59
2018-06-05T09:42:28.064Z,974.51
2018-06-05T09:43:28.319Z,974.57
2018-06-05T09:44:28.553Z,974.56
2018-06-05T09:45:28.801Z,974.54
2018-06-05T09:46:29.059Z,974.56
2018-06-05T09:47:29.295Z,974.57
2018-06-05T09:48:29.534Z,974.51
2018-06-05T09:49:29.795Z,974.57
2018-06-05T09:50:30.025Z,974.55
2018-06-05T09:51:30.277Z,974.57
2018-06-05T09:52:30.547Z,974.53
2018-06-05T09:53:30.769Z,974.54
2018-06-05T09:54:31.010Z,974.53
2018-06-05T09:55:31.259Z,974.54
2018-06-05T09:56:31.501Z,974.58
2018-06-05T09:57:31.755Z,974.63
2018-06-05T09:58:32.090Z,974.67
2018-06-05T09:59:32.269Z,974.64
2018-06-05T10:00:32.486Z,974.65
2018-06-05T10:01:32.759Z,974.63
2018-06-05T10:02:32.990Z,974.63
2018-06-05T10:03:33.232Z,974.64
2018-06-05T10:04:33.483Z,974.64
2018-06-05T10:05:33.733Z,974.64
2018-06-05T10:06:33.979Z,974.70
2018-06-05T10:07:34.216Z,974.67
2018-06-05T10:08:34.467Z,974.67
2018-06-05T10:09:34.715Z,974.61
2018-06-05T10:10:34.960Z,974.61
2018-06-05T10:11:35.218Z,974.64
2018-06-05T10:12:35.464Z,974.67
2018-06-05T10:13:35.686Z,975.79
2018-06-05T10:14:35.926Z,974.69
2018-06-05T10:15:36.171Z,974.65
2018-06-05T10:16:36.423Z,974.62
2018-06-05T10:17:36.672Z,975.58
2018-06-05T10:18:36.925Z,975.59
2018-06-05T10:19:37.178Z,975.53
2018-06-05T10:20:37.423Z,974.96
2018-06-05T10:21:37.678Z,975.04
2018-06-05T10:22:37.937Z,975.15
2018-06-05T10:23:38.172Z,974.69
2018-06-05T10:24:38.426Z,974.74
2018-06-05T10:25:38.681Z,975.67
2018-06-05T10:26:38.920Z,974.73
2018-06-05T10:27:39.158Z,974.60
2018-06-05T10:28:39.420Z,974.54
2018-06-05T10:29:39.672Z,974.58
2018-06-05T10:30:39.925Z,974.76
2018-06-05T10:31:40.171Z,974.95
2018-06-05T10:32:40.396Z,974.55
2018-06-05T10:33:40.653Z,974.52
2018-06-05T10:34:40.937Z,974.62
2018-06-05T10:35:41.148Z,974.79
2018-06-05T10:36:41.399Z,974.79
2018-06-05T10:37:41.655Z,974.49
2018-06-05T10:38:41.909Z,974.40
2018-06-05T10:39:42.157Z,974.39
2018-06-05T10:40:42.416Z,974.69
2018-06-05T10:41:42.671Z,974.57
2018-06-05T10:42:42.938Z,974.63
2018-06-05T10:43:43.179Z,974.71
2018-06-05T10:44:43.434Z,974.51
2018-06-05T10:45:43.686Z,974.48
2018-06-05T10:46:43.993Z,974.68
2018-06-05T10:47:44.198Z,974.42
2018-06-05T10:48:44.449Z,974.41
2018-06-05T10:49:44.704Z,974.69
2018-06-05T10:50:44.956Z,974.58
2018-06-05T10:51:45.218Z,974.63
2018-06-05T10:52:45.476Z,974.38
2018-06-05T10:53:45.743Z,974.70
2018-06-05T10:54:45.984Z,974.67
2018-06-05T10:55:46.237Z,974.64
2018-06-05T10:56:46.493Z,974.58
2018-06-05T10:57:46.748Z,974.51
2018-06-05T10:58:47.006Z,974.50
2018-06-05T10:59:47.260Z,974.55
2018-06-05T11:00:47.511Z,974.63
2018-06-05T11:01:47.761Z,974.65
2018-06-05T11:02:48.009Z,974.74
2018-06-05T11:03:48.268Z,974.86
2018-06-05T11:04:48.524Z,974.87
2018-06-05T11:05:48.779Z,974.57
2018-06-05T11:06:49.036Z,974.48
2018-06-05T11:07:49.293Z,974.51
2018-06-05T11:08:49.551Z,974.49
2018-06-05T11:09:49.809Z,974.44
2018-06-05T11:10:50.063Z,974.25
2018-06-05T11:11:50.323Z,974.14
2018-06-05T11:12:50.649Z,974.98
2018-06-05T11:13:50.841Z,975.41
2018-06-05T11:14:51.094Z,975.45
2018-06-05T11:15:51.350Z,975.32
2018-06-05T11:16:51.631Z,975.02
2018-06-05T11:17:51.863Z,974.65
2018-06-05T11:18:52.120Z,974.53
2018-06-05T11:19:52.385Z,974.60
2018-06-05T11:20:52.644Z,974.10
2018-06-05T11:21:52.899Z,974.04
2018-06-05T11:22:53.149Z,974.31
2018-06-05T11:23:53.407Z,974.21
2018-06-05T11:24:53.663Z,975.06
2018-06-05T11:25:53.924Z,975.35
2018-06-05T11:26:54.171Z,975.68
2018-06-05T11:27:54.437Z,975.87
2018-06-05T11:28:54.683Z,975.75
2018-06-05T11:29:54.945Z,975.79
2018-06-05T11:30:55.195Z,975.24
2018-06-05T11:31:55.448Z,974.30
2018-06-05T11:32:55.701Z,974.27
2018-06-05T11:33:55.951Z,974.27
2018-06-05T11:34:56.209Z,974.25
2018-06-05T11:35:56.469Z,974.24
2018-06-05T11:36:56.750Z,974.25
2018-06-05T11:37:56.980Z,974.25
2018-06-05T11:38:57.235Z,974.23
2018-06-05T11:39:57.493Z,974.19
2018-06-05T11:40:57.749Z,974.20
2018-06-05T11:41:58.008Z,974.19
2018-06-05T11:42:58.264Z,974.24
2018-06-05T11:43:58.523Z,974.23
2018-06-05T11:44:58.786Z,974.20
2018-06-05T11:45:59.029Z,974.20
2018-06-05T11:46:59.339Z,974.24
2018-06-05T11:47:59.543Z,974.24
2018-06-05T11:48:59.803Z,974.25
2018-06-05T11:50:00.059Z,974.25
2018-06-05T11:51:00.320Z,974.25
2018-06-05T11:52:00.569Z,974.21
2018-06-05T11:53:00.822Z,974.18
2018-06-05T11:54:01.108Z,974.15
2018-06-05T11:55:01.334Z,974.20
2018-06-05T11:56:01.584Z,974.22
2018-06-05T11:57:01.841Z,974.19
2018-06-05T11:58:02.097Z,974.17
2018-06-05T11:59:02.357Z,974.15
2018-06-05T12:00:02.614Z,974.12
2018-06-05T12:01:02.858Z,974.13
2018-06-05T12:02:03.119Z,974.15
2018-06-05T12:03:03.373Z,974.18
2018-06-05T12:04:03.621Z,974.18
2018-06-05T12:05:03.881Z,974.16
2018-06-05T12:06:04.151Z,974.13
2018-06-05T12:07:04.383Z,974.13
2018-06-05T12:08:04.641Z,974.14
2018-06-05T12:09:04.894Z,974.14
2018-06-05T12:10:05.154Z,974.12
2018-06-05T12:11:05.410Z,974.15
2018-06-05T12:12:05.682Z,974.14
2018-06-05T12:13:05.931Z,974.12
2018-06-05T12:14:06.197Z,974.04
2018-06-05T12:15:06.442Z,974.08
2018-06-05T12:16:06.707Z,974.02
2018-06-05T12:17:06.962Z,974.03
2018-06-05T12:18:07.217Z,973.97
2018-06-05T12:19:07.472Z,973.94
2018-06-05T12:20:07.729Z,973.98
2018-06-05T12:21:07.992Z,973.95
2018-06-05T12:22:08.259Z,973.84
2018-06-05T12:23:08.506Z,973.91
2018-06-05T12:24:08.763Z,973.87
2018-06-05T12:25:09.044Z,973.88
2018-06-05T12:26:09.273Z,973.92
2018-06-05T12:27:09.535Z,973.90
2018-06-05T12:28:09.789Z,973.90
2018-06-05T12:29:10.051Z,973.84
2018-06-05T12:30:10.301Z,973.86
2018-06-05T12:31:10.553Z,973.86